createdAt,value
2023-05-12T00:00:07.913Z,148.70
2023-05-12T00:02:43.051Z,149.27
2023-05-12T00:05:10.965Z,148.93
2023-05-12T00:07:39.542Z,148.53
2023-05-12T00:10:09.585Z,149.30
2023-05-12T00:12:37.865Z,149.10
2023-05-12T00:15:06.780Z,148.90
2023-05-12T00:17:34.631Z,149.03
2023-05-12T00:20:02.650Z,149.40
2023-05-12T00:22:30.566Z,148.83
2023-05-12T00:24:58.526Z,148.57
2023-05-12T00:27:27.696Z,148.60
2023-05-12T00:29:55.529Z,149.33
2023-05-12T00:32:23.376Z,148.60
2023-05-12T00:34:53.192Z,148.87
2023-05-12T00:37:21.545Z,148.73
2023-05-12T00:39:49.358Z,148.50
2023-05-12T00:42:17.302Z,148.80
2023-05-12T00:44:47.144Z,148.67
2023-05-12T00:47:15.189Z,149.13
2023-05-12T00:49:43.320Z,148.63
2023-05-12T00:52:11.303Z,149.07
2023-05-12T00:54:40.900Z,148.60
2023-05-12T00:57:09.410Z,148.70
2023-05-12T00:59:37.369Z,149.00
2023-05-12T01:02:07.587Z,148.67
2023-05-12T01:04:36.778Z,147.80
2023-05-12T01:07:09.864Z,149.13
2023-05-12T01:09:38.022Z,148.97
2023-05-12T01:12:06.603Z,148.47
2023-05-12T01:14:35.792Z,148.50
2023-05-12T01:17:09.180Z,148.10
2023-05-12T01:19:42.747Z,147.40
2023-05-12T01:22:12.539Z,148.63
2023-05-12T01:24:51.128Z,147.70
2023-05-12T01:27:22.148Z,148.53
2023-05-12T01:29:51.055Z,147.80
2023-05-12T01:32:21.166Z,148.20
2023-05-12T01:34:50.218Z,148.20
2023-05-12T01:37:18.240Z,148.67
2023-05-12T01:39:46.241Z,148.43
2023-05-12T01:42:20.770Z,148.23
2023-05-12T01:44:49.612Z,148.30
2023-05-12T01:47:17.678Z,148.23
2023-05-12T01:49:54.228Z,147.73
2023-05-12T01:52:22.082Z,147.87
2023-05-12T01:54:51.280Z,148.33
2023-05-12T01:57:20.706Z,148.40
2023-05-12T01:59:49.539Z,148.30
2023-05-12T02:02:17.451Z,148.67
2023-05-12T02:04:45.463Z,149.17
2023-05-12T02:07:15.484Z,147.93
2023-05-12T02:09:44.245Z,147.97
2023-05-12T02:12:12.122Z,147.93
2023-05-12T02:14:43.893Z,148.57
2023-05-12T02:17:12.143Z,148.83
2023-05-12T02:19:39.997Z,148.40
2023-05-12T02:22:08.215Z,148.93
2023-05-12T02:24:36.100Z,148.00
2023-05-12T02:27:04.159Z,148.87
2023-05-12T02:29:32.251Z,148.27
2023-05-12T02:32:01.641Z,147.57
2023-05-12T02:34:29.574Z,147.97
2023-05-12T02:36:57.841Z,148.63
2023-05-12T02:39:25.799Z,147.97
2023-05-12T02:41:53.640Z,148.67
2023-05-12T02:44:22.581Z,148.20
2023-05-12T02:46:51.106Z,148.53
2023-05-12T02:49:20.894Z,148.40
2023-05-12T02:51:49.117Z,148.10
2023-05-12T02:54:17.123Z,148.03
2023-05-12T02:56:45.029Z,148.17
2023-05-12T02:59:12.831Z,147.80
2023-05-12T03:01:40.821Z,148.87
2023-05-12T03:04:08.984Z,147.77
2023-05-12T03:06:38.265Z,147.97
2023-05-12T03:09:06.282Z,148.77
2023-05-12T03:11:34.546Z,147.80
2023-05-12T03:14:02.515Z,147.57
2023-05-12T03:16:30.523Z,147.77
2023-05-12T03:18:58.569Z,147.97
2023-05-12T03:21:28.459Z,148.53
2023-05-12T03:23:58.365Z,147.90
2023-05-12T03:26:27.361Z,147.87
2023-05-12T03:28:56.328Z,147.83
2023-05-12T03:31:24.488Z,148.10
2023-05-12T03:34:00.009Z,148.30
2023-05-12T03:36:34.630Z,147.33
2023-05-12T03:39:04.411Z,148.43
2023-05-12T03:41:34.873Z,148.10
2023-05-12T03:44:03.093Z,147.60
2023-05-12T03:46:31.275Z,148.23
2023-05-12T03:49:00.589Z,147.83
2023-05-12T03:51:28.961Z,148.17
2023-05-12T03:53:56.798Z,148.17
2023-05-12T03:56:26.289Z,147.13
2023-05-12T03:58:54.159Z,148.30
2023-05-12T04:01:22.264Z,148.27
2023-05-12T04:03:50.425Z,147.30
2023-05-12T04:06:18.346Z,147.77
2023-05-12T04:08:46.189Z,148.00
2023-05-12T04:11:13.993Z,148.00
2023-05-12T04:13:44.357Z,147.37
2023-05-12T04:16:12.247Z,147.47
2023-05-12T04:18:40.108Z,147.80
2023-05-12T04:21:09.187Z,147.57
2023-05-12T04:23:37.022Z,147.47
2023-05-12T04:26:05.856Z,147.93
2023-05-12T04:28:34.156Z,147.87
2023-05-12T04:31:05.260Z,147.30
2023-05-12T04:33:33.861Z,147.67
2023-05-12T04:36:02.274Z,147.87
2023-05-12T04:38:30.099Z,147.30
2023-05-12T04:41:01.693Z,147.83
2023-05-12T04:46:01.791Z,147.43
2023-05-12T04:48:31.223Z,147.60
2023-05-12T04:51:00.350Z,147.43
2023-05-12T04:53:28.373Z,147.67
2023-05-12T04:55:57.709Z,147.47
2023-05-12T04:58:28.539Z,147.97
2023-05-12T05:00:56.618Z,147.03
2023-05-12T05:03:25.545Z,147.43
2023-05-12T05:05:54.894Z,147.80
2023-05-12T05:08:22.733Z,147.43
2023-05-12T05:10:50.590Z,147.33
2023-05-12T05:13:18.548Z,148.03
2023-05-12T05:15:53.199Z,147.67
2023-05-12T05:18:24.157Z,147.37
2023-05-12T05:20:58.544Z,147.27
2023-05-12T05:23:27.476Z,147.83
2023-05-12T05:25:56.062Z,147.90
2023-05-12T05:28:24.151Z,147.83
2023-05-12T05:30:52.585Z,147.43
2023-05-12T05:33:20.436Z,147.47
2023-05-12T05:35:48.912Z,147.43
2023-05-12T05:38:18.623Z,147.60
2023-05-12T05:40:53.720Z,148.07
2023-05-12T05:43:22.741Z,147.43
2023-05-12T05:45:50.766Z,148.37
2023-05-12T05:48:20.100Z,147.20
2023-05-12T05:50:48.487Z,147.93
2023-05-12T05:53:18.291Z,146.93
2023-05-12T05:55:46.296Z,147.27
2023-05-12T05:58:15.070Z,147.70
2023-05-12T06:00:43.390Z,147.73
2023-05-12T06:03:11.435Z,148.27
2023-05-12T06:05:42.043Z,147.77
2023-05-12T06:08:12.940Z,147.73
2023-05-12T06:10:42.334Z,147.30
2023-05-12T06:13:10.680Z,147.27
2023-05-12T06:15:39.286Z,147.67
2023-05-12T06:18:07.176Z,147.53
2023-05-12T06:20:35.099Z,147.07
2023-05-12T06:23:03.206Z,147.37
2023-05-12T06:25:33.146Z,147.00
2023-05-12T06:28:03.425Z,147.67
2023-05-12T06:30:31.605Z,147.80
2023-05-12T06:32:59.463Z,147.60
2023-05-12T06:35:27.483Z,147.43
2023-05-12T06:37:55.299Z,148.00
2023-05-12T06:40:23.094Z,148.30
2023-05-12T06:42:51.005Z,147.40
2023-05-12T06:45:23.878Z,147.47
2023-05-12T06:47:52.606Z,147.27
2023-05-12T06:50:20.554Z,148.73
2023-05-12T06:52:53.386Z,147.30
2023-05-12T06:55:21.905Z,148.33
2023-05-12T06:57:51.527Z,147.47
2023-05-12T07:00:19.969Z,148.03
2023-05-12T07:02:49.208Z,147.73
2023-05-12T07:05:18.681Z,147.57
2023-05-12T07:07:46.820Z,148.43
2023-05-12T07:10:14.656Z,148.37
2023-05-12T07:12:42.581Z,147.87
2023-05-12T07:15:11.246Z,148.13
2023-05-12T07:17:39.125Z,148.20
2023-05-12T07:20:10.113Z,148.07
2023-05-12T07:22:38.967Z,148.50
2023-05-12T07:25:07.886Z,148.20
2023-05-12T07:27:35.807Z,148.30
2023-05-12T07:30:03.727Z,148.20
2023-05-12T07:32:31.619Z,148.73
2023-05-12T07:34:59.465Z,148.67
2023-05-12T07:37:28.644Z,148.03
2023-05-12T07:39:56.508Z,148.43
2023-05-12T07:42:24.512Z,148.83
2023-05-12T07:44:52.391Z,149.03
2023-05-12T07:47:20.193Z,148.87
2023-05-12T07:49:48.155Z,149.33
2023-05-12T07:52:16.043Z,148.90
2023-05-12T07:54:45.194Z,149.40
2023-05-12T07:57:13.075Z,148.87
2023-05-12T07:59:41.190Z,149.93
2023-05-12T08:02:09.043Z,149.53
2023-05-12T08:04:37.144Z,149.67
2023-05-12T08:07:05.500Z,149.47
2023-05-12T08:09:33.284Z,148.93
2023-05-12T08:12:02.500Z,149.63
2023-05-12T08:14:30.341Z,150.20
2023-05-12T08:16:58.465Z,149.00
2023-05-12T08:19:26.295Z,149.93
2023-05-12T08:21:54.162Z,148.83
2023-05-12T08:24:22.347Z,149.60
2023-05-12T08:26:50.165Z,149.43
2023-05-12T08:29:19.359Z,149.00
2023-05-12T08:31:47.284Z,148.77
2023-05-12T08:34:15.215Z,149.00
2023-05-12T08:36:43.556Z,148.90
2023-05-12T08:39:11.407Z,150.27
2023-05-12T08:41:44.920Z,149.20
2023-05-12T08:44:13.226Z,149.37
2023-05-12T08:46:43.850Z,149.37
2023-05-12T08:49:16.615Z,150.57
2023-05-12T08:51:49.905Z,149.20
2023-05-12T08:54:26.977Z,149.43
2023-05-12T08:59:26.558Z,149.17
2023-05-12T09:01:56.341Z,149.50
2023-05-12T09:04:24.324Z,148.60
2023-05-12T09:06:55.555Z,149.73
2023-05-12T09:09:25.999Z,150.20
2023-05-12T09:11:58.006Z,150.23
2023-05-12T09:14:27.114Z,149.60
2023-05-12T09:17:02.100Z,149.57
2023-05-12T09:19:31.306Z,149.87
2023-05-12T09:21:59.843Z,149.87
2023-05-12T09:24:36.233Z,150.53
2023-05-12T09:27:04.987Z,148.97
2023-05-12T09:29:37.455Z,150.63
2023-05-12T09:32:11.538Z,150.30
2023-05-12T09:34:40.975Z,150.20
2023-05-12T09:37:10.383Z,150.17
2023-05-12T09:39:38.202Z,150.00
2023-05-12T09:42:13.009Z,150.97
2023-05-12T09:44:42.286Z,150.07
2023-05-12T09:47:11.660Z,149.17
2023-05-12T09:49:39.532Z,150.00
2023-05-12T09:52:07.635Z,149.73
2023-05-12T09:54:36.391Z,150.47
2023-05-12T09:57:05.764Z,150.53
2023-05-12T09:59:36.041Z,150.60
2023-05-12T10:02:06.437Z,150.03
2023-05-12T10:04:43.778Z,150.37
2023-05-12T10:07:15.255Z,150.87
2023-05-12T10:09:48.493Z,150.60
2023-05-12T10:12:17.795Z,150.70
2023-05-12T10:14:46.823Z,150.57
2023-05-12T10:17:16.186Z,150.43
2023-05-12T10:19:46.071Z,150.80
2023-05-12T10:22:17.994Z,150.20
2023-05-12T10:24:46.881Z,150.13
2023-05-12T10:27:17.056Z,150.83
2023-05-12T10:29:46.778Z,150.27
2023-05-12T10:32:14.811Z,151.33
2023-05-12T10:34:43.348Z,150.63
2023-05-12T10:37:12.635Z,151.47
2023-05-12T10:39:48.392Z,151.47
2023-05-12T10:42:18.702Z,150.93
2023-05-12T10:44:51.750Z,151.20
2023-05-12T10:47:19.805Z,151.57
2023-05-12T10:49:47.844Z,151.30
2023-05-12T10:52:21.061Z,151.20
2023-05-12T10:54:49.036Z,151.57
2023-05-12T10:57:21.668Z,151.70
2023-05-12T10:59:53.196Z,151.20
2023-05-12T11:02:27.584Z,151.50
2023-05-12T11:04:58.276Z,151.60
2023-05-12T11:07:30.373Z,151.93
2023-05-12T11:10:01.513Z,152.20
2023-05-12T11:12:32.709Z,152.07
2023-05-12T11:15:02.323Z,151.57
2023-05-12T11:17:30.582Z,151.83
2023-05-12T11:19:58.635Z,151.40
2023-05-12T11:22:28.268Z,152.03
2023-05-12T11:24:56.246Z,151.33
2023-05-12T11:27:24.604Z,151.40
2023-05-12T11:29:59.598Z,152.03
2023-05-12T11:32:28.265Z,151.10
2023-05-12T11:34:56.182Z,152.13
2023-05-12T11:37:24.214Z,151.57
2023-05-12T11:39:53.609Z,151.97
2023-05-12T11:42:23.480Z,150.77
2023-05-12T11:44:53.003Z,151.73
2023-05-12T11:47:21.258Z,151.60
2023-05-12T11:49:50.427Z,151.70
2023-05-12T11:52:19.370Z,152.23
2023-05-12T11:54:51.798Z,151.27
2023-05-12T11:57:28.328Z,151.87
2023-05-12T12:00:00.724Z,151.13
2023-05-12T12:02:29.371Z,151.23
2023-05-12T12:04:57.597Z,152.33
2023-05-12T12:07:32.469Z,151.23
2023-05-12T12:10:00.805Z,151.43
2023-05-12T12:12:29.988Z,151.93
2023-05-12T12:15:00.245Z,151.70
2023-05-12T12:17:30.757Z,151.60
2023-05-12T12:19:59.316Z,152.10
2023-05-12T12:22:27.348Z,151.90
2023-05-12T12:24:55.235Z,151.67
2023-05-12T12:27:23.158Z,151.43
2023-05-12T12:29:52.330Z,152.07
2023-05-12T12:32:20.176Z,151.43
2023-05-12T12:34:49.376Z,152.07
2023-05-12T12:37:17.603Z,151.93
2023-05-12T12:39:50.887Z,151.27
2023-05-12T12:42:18.757Z,151.90
2023-05-12T12:44:50.084Z,152.07
2023-05-12T12:47:19.344Z,151.93
2023-05-12T12:49:47.351Z,151.97
2023-05-12T12:52:15.206Z,151.83
2023-05-12T12:54:43.458Z,152.33
2023-05-12T12:57:11.327Z,151.67
2023-05-12T12:59:39.254Z,152.23
2023-05-12T13:02:07.122Z,152.73
2023-05-12T13:04:36.862Z,151.47
2023-05-12T13:07:07.266Z,151.73
2023-05-12T13:09:37.860Z,151.67
2023-05-12T13:12:06.676Z,151.67
2023-05-12T13:14:34.677Z,151.77
2023-05-12T13:17:02.697Z,152.37
2023-05-12T13:19:30.888Z,151.87
2023-05-12T13:22:00.121Z,151.73
2023-05-12T13:24:27.930Z,151.87
2023-05-12T13:26:56.574Z,151.70
2023-05-12T13:29:24.470Z,151.77
2023-05-12T13:31:52.337Z,152.20
2023-05-12T13:34:21.283Z,151.40
2023-05-12T13:36:49.116Z,151.20
2023-05-12T13:39:19.590Z,152.07
2023-05-12T13:41:47.742Z,151.97
2023-05-12T13:44:15.544Z,151.53
2023-05-12T13:46:43.434Z,151.37
2023-05-12T13:49:14.885Z,151.73
2023-05-12T13:51:42.821Z,151.20
2023-05-12T13:54:10.672Z,152.70
2023-05-12T13:56:39.912Z,152.00
2023-05-12T13:59:09.256Z,151.73
2023-05-12T14:01:37.207Z,151.60
2023-05-12T14:04:05.060Z,152.73
2023-05-12T14:06:33.345Z,152.93
2023-05-12T14:09:01.187Z,151.50
2023-05-12T14:11:29.225Z,152.37
2023-05-12T14:14:00.157Z,152.57
2023-05-12T14:16:29.046Z,152.13
2023-05-12T14:18:57.085Z,152.03
2023-05-12T14:21:25.060Z,151.93
2023-05-12T14:23:52.940Z,152.47
2023-05-12T14:26:21.376Z,152.17
2023-05-12T14:28:49.421Z,152.57
2023-05-12T14:31:18.920Z,152.60
2023-05-12T14:33:46.809Z,151.67
2023-05-12T14:36:14.620Z,151.90
2023-05-12T14:38:42.455Z,152.20
2023-05-12T14:41:11.074Z,152.27
2023-05-12T14:43:41.454Z,152.07
2023-05-12T14:46:09.546Z,152.27
2023-05-12T14:48:38.805Z,152.90
2023-05-12T14:51:06.762Z,152.40
2023-05-12T14:53:34.784Z,151.67
2023-05-12T14:56:02.833Z,152.40
2023-05-12T14:58:30.973Z,151.57
2023-05-12T15:00:59.232Z,151.60
2023-05-12T15:03:27.344Z,151.97
2023-05-12T15:06:06.605Z,152.77
2023-05-12T15:08:35.535Z,152.33
2023-05-12T15:11:03.360Z,152.27
2023-05-12T15:13:31.517Z,152.10
2023-05-12T15:15:59.360Z,152.63
2023-05-12T15:18:27.260Z,152.53
2023-05-12T15:20:56.667Z,151.87
2023-05-12T15:23:24.521Z,151.80
2023-05-12T15:25:52.359Z,152.60
2023-05-12T15:28:20.824Z,152.33
2023-05-12T15:30:56.088Z,151.60
2023-05-12T15:33:26.391Z,152.30
2023-05-12T15:35:54.566Z,151.40
2023-05-12T15:38:23.831Z,152.20
2023-05-12T15:40:51.803Z,152.27
2023-05-12T15:43:19.637Z,152.97
2023-05-12T15:45:47.502Z,152.23
2023-05-12T15:48:15.532Z,152.40
2023-05-12T15:50:44.497Z,152.33
2023-05-12T15:53:12.529Z,152.70
2023-05-12T15:55:41.696Z,152.00
2023-05-12T15:58:11.673Z,152.53
2023-05-12T16:00:40.439Z,152.00
2023-05-12T16:03:09.033Z,152.03
2023-05-12T16:05:38.462Z,151.07
2023-05-12T16:08:06.377Z,152.97
2023-05-12T16:10:34.226Z,151.50
2023-05-12T16:13:03.381Z,151.47
2023-05-12T16:15:31.303Z,152.00
2023-05-12T16:17:59.186Z,152.03
2023-05-12T16:20:27.044Z,151.83
2023-05-12T16:22:54.953Z,151.80
2023-05-12T16:25:23.023Z,152.00
2023-05-12T16:27:51.095Z,152.03
2023-05-12T16:30:20.832Z,151.97
2023-05-12T16:32:48.731Z,151.93
2023-05-12T16:35:16.762Z,152.00
2023-05-12T16:37:44.643Z,151.93
2023-05-12T16:40:13.005Z,152.23
2023-05-12T16:42:40.822Z,152.43
2023-05-12T16:45:10.806Z,152.10
2023-05-12T16:47:40.027Z,152.63
2023-05-12T16:50:09.458Z,152.37
2023-05-12T16:52:37.369Z,152.43
2023-05-12T16:55:05.796Z,151.43
2023-05-12T16:57:34.502Z,151.90
2023-05-12T17:00:05.424Z,151.40
2023-05-12T17:02:33.856Z,151.27
2023-05-12T17:05:03.270Z,152.10
2023-05-12T17:07:31.088Z,151.77
2023-05-12T17:09:58.943Z,151.87
2023-05-12T17:12:26.793Z,152.03
2023-05-12T17:15:06.261Z,152.30
2023-05-12T17:17:36.072Z,152.13
2023-05-12T17:20:06.268Z,151.33
2023-05-12T17:22:41.082Z,151.70
2023-05-12T17:25:09.633Z,152.23
2023-05-12T17:27:37.478Z,152.47
2023-05-12T17:30:06.293Z,151.87
2023-05-12T17:32:34.181Z,152.17
2023-05-12T17:35:02.183Z,151.90
2023-05-12T17:37:31.579Z,151.97
2023-05-12T17:40:00.780Z,151.53
2023-05-12T17:42:31.144Z,152.00
2023-05-12T17:44:59.394Z,151.83
2023-05-12T17:47:27.773Z,151.67
2023-05-12T17:49:55.682Z,152.23
2023-05-12T17:52:23.566Z,151.93
2023-05-12T17:54:56.987Z,152.53
2023-05-12T17:57:24.861Z,152.10
2023-05-12T17:59:53.051Z,151.63
2023-05-12T18:02:20.978Z,152.07
2023-05-12T18:04:49.031Z,151.93
2023-05-12T18:07:17.027Z,152.30
2023-05-12T18:09:44.868Z,151.90
2023-05-12T18:12:14.049Z,152.37
2023-05-12T18:14:41.879Z,151.97
2023-05-12T18:17:09.768Z,151.10
2023-05-12T18:19:37.596Z,151.37
2023-05-12T18:22:05.630Z,152.20
2023-05-12T18:24:33.473Z,152.87
2023-05-12T18:27:01.820Z,151.60
2023-05-12T18:29:31.305Z,151.87
2023-05-12T18:31:59.144Z,151.80
2023-05-12T18:34:27.583Z,151.40
2023-05-12T18:36:55.870Z,152.00
2023-05-12T18:39:24.003Z,151.40
2023-05-12T18:41:51.855Z,151.10
2023-05-12T18:44:19.698Z,151.97
2023-05-12T18:46:48.925Z,151.97
2023-05-12T18:49:16.814Z,151.30
2023-05-12T18:51:44.616Z,151.60
2023-05-12T18:54:12.467Z,152.00
2023-05-12T18:56:40.318Z,151.43
2023-05-12T18:59:08.120Z,150.93
2023-05-12T19:01:36.322Z,151.00
2023-05-12T19:04:05.775Z,151.57
2023-05-12T19:06:33.888Z,150.83
2023-05-12T19:09:01.726Z,151.07
2023-05-12T19:11:29.682Z,151.63
2023-05-12T19:13:57.532Z,150.90
2023-05-12T19:16:25.413Z,151.13
2023-05-12T19:18:53.419Z,151.00
2023-05-12T19:21:22.627Z,152.27
2023-05-12T19:23:50.485Z,151.00
2023-05-12T19:26:18.312Z,151.10
2023-05-12T19:28:46.161Z,151.03
2023-05-12T19:31:14.062Z,151.17
2023-05-12T19:33:41.923Z,151.47
2023-05-12T19:36:11.291Z,151.93
2023-05-12T19:38:43.379Z,151.10
2023-05-12T19:41:11.777Z,151.30
2023-05-12T19:43:40.207Z,150.93
2023-05-12T19:46:08.095Z,150.60
2023-05-12T19:48:36.217Z,151.27
2023-05-12T19:51:04.129Z,150.83
2023-05-12T19:53:31.937Z,150.60
2023-05-12T19:56:01.175Z,150.93
2023-05-12T19:58:28.961Z,150.83
2023-05-12T20:00:56.869Z,150.67
2023-05-12T20:03:24.757Z,151.23
2023-05-12T20:05:52.871Z,150.60
2023-05-12T20:08:20.687Z,150.93
2023-05-12T20:10:48.549Z,150.80
2023-05-12T20:13:17.711Z,149.73
2023-05-12T20:15:45.732Z,150.90
2023-05-12T20:18:15.444Z,151.23
2023-05-12T20:20:43.930Z,150.80
2023-05-12T20:23:11.766Z,151.07
2023-05-12T20:25:39.613Z,150.87
2023-05-12T20:28:09.354Z,150.63
2023-05-12T20:30:38.907Z,151.10
2023-05-12T20:33:06.959Z,150.73
2023-05-12T20:35:34.779Z,150.33
2023-05-12T20:38:02.959Z,150.17
2023-05-12T20:40:30.801Z,150.87
2023-05-12T20:42:58.658Z,150.50
2023-05-12T20:45:26.637Z,150.60
2023-05-12T20:47:55.881Z,150.73
2023-05-12T20:50:23.758Z,151.57
2023-05-12T20:52:51.641Z,150.77
2023-05-12T20:55:19.686Z,151.33
2023-05-12T20:57:47.772Z,150.77
2023-05-12T21:00:16.340Z,150.97
2023-05-12T21:02:44.175Z,150.97
2023-05-12T21:05:13.600Z,150.37
2023-05-12T21:07:41.467Z,150.97
2023-05-12T21:10:10.038Z,150.57
2023-05-12T21:12:38.483Z,150.57
2023-05-12T21:15:10.167Z,150.30
2023-05-12T21:17:39.161Z,150.30
2023-05-12T21:20:09.951Z,150.77
2023-05-12T21:22:40.406Z,150.17
2023-05-12T21:25:08.808Z,151.30
2023-05-12T21:27:40.192Z,151.17
2023-05-12T21:30:09.175Z,151.13
2023-05-12T21:32:37.422Z,150.17
2023-05-12T21:35:06.191Z,150.70
2023-05-12T21:37:34.315Z,151.00
2023-05-12T21:40:03.903Z,150.37
2023-05-12T21:42:32.799Z,150.03
2023-05-12T21:45:00.643Z,150.40
2023-05-12T21:47:28.503Z,150.90
2023-05-12T21:49:57.057Z,150.07
2023-05-12T21:52:24.926Z,150.13
2023-05-12T21:54:55.168Z,149.90
2023-05-12T21:57:24.339Z,150.20
2023-05-12T21:59:52.139Z,149.37
2023-05-12T22:02:19.972Z,150.60
2023-05-12T22:04:47.834Z,150.17
2023-05-12T22:07:15.662Z,150.53
2023-05-12T22:09:43.469Z,149.97
2023-05-12T22:12:15.169Z,150.47
2023-05-12T22:14:44.635Z,150.80
2023-05-12T22:17:12.878Z,150.30
2023-05-12T22:19:40.824Z,150.20
2023-05-12T22:22:08.809Z,150.83
2023-05-12T22:24:36.629Z,150.00
2023-05-12T22:27:04.661Z,149.97
2023-05-12T22:29:32.444Z,150.17
2023-05-12T22:32:01.588Z,149.37
2023-05-12T22:34:29.400Z,150.17
2023-05-12T22:36:57.262Z,149.77
2023-05-12T22:39:25.080Z,149.67
2023-05-12T22:41:55.772Z,149.73
2023-05-12T22:44:25.956Z,150.17
2023-05-12T22:46:53.844Z,150.63
2023-05-12T22:49:23.015Z,150.00
2023-05-12T22:51:50.792Z,149.73
2023-05-12T22:54:18.617Z,149.73
2023-05-12T22:56:46.458Z,150.27
2023-05-12T22:59:14.510Z,149.63
2023-05-12T23:01:42.337Z,149.73
2023-05-12T23:04:10.134Z,150.23
2023-05-12T23:06:39.359Z,149.20
2023-05-12T23:09:07.176Z,150.07
2023-05-12T23:11:35.008Z,149.93
2023-05-12T23:14:02.801Z,149.67
2023-05-12T23:16:30.648Z,149.83
2023-05-12T23:18:58.556Z,150.07
2023-05-12T23:21:26.557Z,149.53
2023-05-12T23:23:55.731Z,150.00
2023-05-12T23:26:23.535Z,150.07
2023-05-12T23:28:51.565Z,150.17
2023-05-12T23:31:19.436Z,149.83
2023-05-12T23:33:47.330Z,149.50
2023-05-12T23:36:15.286Z,149.13
2023-05-12T23:38:43.605Z,149.60
2023-05-12T23:41:12.785Z,149.73
2023-05-12T23:43:40.626Z,149.80
2023-05-12T23:46:08.525Z,148.93
2023-05-12T23:48:37.259Z,148.97
2023-05-12T23:51:05.503Z,149.87
2023-05-12T23:53:33.322Z,149.67
2023-05-12T23:56:01.165Z,149.97
2023-05-12T23:58:30.301Z,149.63
